sensor_id;sensor_type;location;lat;lon;timestamp;P1;durP1;ratioP1;P2;durP2;ratioP2
11711;SDS011;5912;51.034;6.984;2023-04-03T00:00:48;4.40;;;3.93;;
11711;SDS011;5912;51.034;6.984;2023-04-03T00:03:14;5.80;;;4.10;;
11711;SDS011;5912;51.034;6.984;2023-04-03T00:05:40;5.10;;;3.63;;
11711;SDS011;5912;51.034;6.984;2023-04-03T00:08:05;4.03;;;3.40;;
11711;SDS011;5912;51.034;6.984;2023-04-03T00:10:32;5.30;;;3.60;;
11711;SDS011;5912;51.034;6.984;2023-04-03T00:12:58;4.70;;;3.87;;
11711;SDS011;5912;51.034;6.984;2023-04-03T00:15:23;4.50;;;3.83;;
11711;SDS011;5912;51.034;6.984;2023-04-03T00:17:49;5.13;;;4.00;;
11711;SDS011;5912;51.034;6.984;2023-04-03T00:20:14;5.03;;;3.63;;
11711;SDS011;5912;51.034;6.984;2023-04-03T00:22:40;4.53;;;4.10;;
11711;SDS011;5912;51.034;6.984;2023-04-03T00:25:05;5.57;;;3.53;;
11711;SDS011;5912;51.034;6.984;2023-04-03T00:27:31;4.10;;;3.70;;
11711;SDS011;5912;51.034;6.984;2023-04-03T00:29:56;6.97;;;3.50;;
11711;SDS011;5912;51.034;6.984;2023-04-03T00:32:22;4.17;;;3.67;;
11711;SDS011;5912;51.034;6.984;2023-04-03T00:34:47;4.30;;;3.70;;
11711;SDS011;5912;51.034;6.984;2023-04-03T00:37:12;4.20;;;3.47;;
11711;SDS011;5912;51.034;6.984;2023-04-03T00:39:38;3.60;;;3.30;;
11711;SDS011;5912;51.034;6.984;2023-04-03T00:42:04;4.80;;;3.70;;
11711;SDS011;5912;51.034;6.984;2023-04-03T00:47:00;4.30;;;3.43;;
11711;SDS011;5912;51.034;6.984;2023-04-03T00:49:28;5.37;;;3.47;;
11711;SDS011;5912;51.034;6.984;2023-04-03T00:51:54;3.53;;;3.10;;
11711;SDS011;5912;51.034;6.984;2023-04-03T00:54:20;3.63;;;3.20;;
11711;SDS011;5912;51.034;6.984;2023-04-03T00:56:46;3.70;;;3.37;;
11711;SDS011;5912;51.034;6.984;2023-04-03T00:59:15;3.77;;;3.47;;
11711;SDS011;5912;51.034;6.984;2023-04-03T01:01:43;3.57;;;3.13;;
11711;SDS011;5912;51.034;6.984;2023-04-03T01:04:29;3.73;;;3.40;;
11711;SDS011;5912;51.034;6.984;2023-04-03T01:06:55;5.13;;;3.33;;
11711;SDS011;5912;51.034;6.984;2023-04-03T01:09:22;3.30;;;3.00;;
11711;SDS011;5912;51.034;6.984;2023-04-03T01:11:48;2.83;;;2.63;;
11711;SDS011;5912;51.034;6.984;2023-04-03T01:14:13;3.80;;;3.30;;
11711;SDS011;5912;51.034;6.984;2023-04-03T01:16:38;3.80;;;3.03;;
11711;SDS011;5912;51.034;6.984;2023-04-03T01:19:05;3.87;;;3.30;;
11711;SDS011;5912;51.034;6.984;2023-04-03T01:26:50;3.50;;;3.10;;
11711;SDS011;5912;51.034;6.984;2023-04-03T01:29:16;3.50;;;3.07;;
11711;SDS011;5912;51.034;6.984;2023-04-03T01:31:55;3.23;;;2.93;;
11711;SDS011;5912;51.034;6.984;2023-04-03T01:34:22;4.07;;;3.30;;
11711;SDS011;5912;51.034;6.984;2023-04-03T01:36:48;4.37;;;2.97;;
11711;SDS011;5912;51.034;6.984;2023-04-03T01:39:13;3.67;;;3.00;;
11711;SDS011;5912;51.034;6.984;2023-04-03T01:41:39;4.83;;;3.80;;
11711;SDS011;5912;51.034;6.984;2023-04-03T01:44:04;3.93;;;3.60;;
11711;SDS011;5912;51.034;6.984;2023-04-03T01:46:30;4.10;;;3.70;;
11711;SDS011;5912;51.034;6.984;2023-04-03T01:48:56;4.27;;;3.77;;
11711;SDS011;5912;51.034;6.984;2023-04-03T01:51:21;3.97;;;3.63;;
11711;SDS011;5912;51.034;6.984;2023-04-03T01:53:46;5.03;;;3.60;;
11711;SDS011;5912;51.034;6.984;2023-04-03T01:56:12;3.80;;;3.50;;
11711;SDS011;5912;51.034;6.984;2023-04-03T01:58:37;3.73;;;3.20;;
11711;SDS011;5912;51.034;6.984;2023-04-03T02:01:03;5.63;;;3.70;;
11711;SDS011;5912;51.034;6.984;2023-04-03T02:03:29;3.40;;;3.10;;
11711;SDS011;5912;51.034;6.984;2023-04-03T02:05:54;3.93;;;3.53;;
11711;SDS011;5912;51.034;6.984;2023-04-03T02:08:20;3.53;;;2.90;;
11711;SDS011;5912;51.034;6.984;2023-04-03T02:10:48;5.03;;;3.37;;
11711;SDS011;5912;51.034;6.984;2023-04-03T02:16:09;4.03;;;3.60;;
11711;SDS011;5912;51.034;6.984;2023-04-03T02:18:35;3.63;;;3.33;;
11711;SDS011;5912;51.034;6.984;2023-04-03T02:21:00;4.77;;;3.13;;
11711;SDS011;5912;51.034;6.984;2023-04-03T02:23:26;6.67;;;3.67;;
11711;SDS011;5912;51.034;6.984;2023-04-03T02:25:51;5.40;;;3.67;;
11711;SDS011;5912;51.034;6.984;2023-04-03T02:28:16;3.77;;;3.20;;
11711;SDS011;5912;51.034;6.984;2023-04-03T02:30:41;3.63;;;3.33;;
11711;SDS011;5912;51.034;6.984;2023-04-03T02:33:07;4.00;;;3.37;;
11711;SDS011;5912;51.034;6.984;2023-04-03T02:35:32;4.07;;;3.50;;
11711;SDS011;5912;51.034;6.984;2023-04-03T02:37:57;4.13;;;3.07;;
11711;SDS011;5912;51.034;6.984;2023-04-03T02:40:22;3.53;;;3.00;;
11711;SDS011;5912;51.034;6.984;2023-04-03T02:42:48;4.23;;;3.13;;
11711;SDS011;5912;51.034;6.984;2023-04-03T02:45:13;3.50;;;3.20;;
11711;SDS011;5912;51.034;6.984;2023-04-03T02:47:38;3.60;;;3.13;;
11711;SDS011;5912;51.034;6.984;2023-04-03T02:50:04;4.70;;;3.03;;
11711;SDS011;5912;51.034;6.984;2023-04-03T02:52:29;3.80;;;2.80;;
11711;SDS011;5912;51.034;6.984;2023-04-03T02:54:55;3.97;;;3.20;;
11711;SDS011;5912;51.034;6.984;2023-04-03T02:57:20;5.23;;;2.60;;
11711;SDS011;5912;51.034;6.984;2023-04-03T02:59:45;3.63;;;3.00;;
11711;SDS011;5912;51.034;6.984;2023-04-03T03:02:11;3.03;;;2.73;;
11711;SDS011;5912;51.034;6.984;2023-04-03T03:04:36;5.67;;;2.70;;
11711;SDS011;5912;51.034;6.984;2023-04-03T03:07:02;3.90;;;3.00;;
11711;SDS011;5912;51.034;6.984;2023-04-03T03:09:27;4.73;;;2.80;;
11711;SDS011;5912;51.034;6.984;2023-04-03T03:11:54;4.23;;;2.77;;
11711;SDS011;5912;51.034;6.984;2023-04-03T03:14:20;3.07;;;2.57;;
11711;SDS011;5912;51.034;6.984;2023-04-03T03:16:45;3.17;;;2.67;;
11711;SDS011;5912;51.034;6.984;2023-04-03T03:19:10;3.10;;;2.47;;
11711;SDS011;5912;51.034;6.984;2023-04-03T03:21:36;3.93;;;2.80;;
11711;SDS011;5912;51.034;6.984;2023-04-03T03:24:01;4.03;;;2.23;;
11711;SDS011;5912;51.034;6.984;2023-04-03T03:26:26;2.43;;;2.23;;
11711;SDS011;5912;51.034;6.984;2023-04-03T03:29:04;4.63;;;2.47;;
11711;SDS011;5912;51.034;6.984;2023-04-03T03:31:29;3.40;;;2.40;;
11711;SDS011;5912;51.034;6.984;2023-04-03T03:33:55;2.67;;;2.20;;
11711;SDS011;5912;51.034;6.984;2023-04-03T03:36:20;3.23;;;2.50;;
11711;SDS011;5912;51.034;6.984;2023-04-03T03:38:45;3.30;;;1.77;;
11711;SDS011;5912;51.034;6.984;2023-04-03T03:41:11;4.67;;;2.23;;
11711;SDS011;5912;51.034;6.984;2023-04-03T03:43:36;2.67;;;2.20;;
11711;SDS011;5912;51.034;6.984;2023-04-03T03:46:01;2.90;;;1.40;;
11711;SDS011;5912;51.034;6.984;2023-04-03T03:48:27;3.63;;;2.00;;
11711;SDS011;5912;51.034;6.984;2023-04-03T03:50:52;1.90;;;1.80;;
11711;SDS011;5912;51.034;6.984;2023-04-03T03:53:17;2.83;;;1.57;;
11711;SDS011;5912;51.034;6.984;2023-04-03T03:55:44;1.63;;;1.50;;
11711;SDS011;5912;51.034;6.984;2023-04-03T03:58:09;2.07;;;1.60;;
11711;SDS011;5912;51.034;6.984;2023-04-03T04:00:34;1.93;;;1.60;;
11711;SDS011;5912;51.034;6.984;2023-04-03T04:03:00;2.07;;;1.53;;
11711;SDS011;5912;51.034;6.984;2023-04-03T04:05:25;3.00;;;1.50;;
11711;SDS011;5912;51.034;6.984;2023-04-03T04:07:51;3.50;;;1.33;;
11711;SDS011;5912;51.034;6.984;2023-04-03T04:10:16;2.23;;;1.67;;
11711;SDS011;5912;51.034;6.984;2023-04-03T04:12:41;4.17;;;1.23;;
11711;SDS011;5912;51.034;6.984;2023-04-03T04:15:07;2.90;;;1.60;;
11711;SDS011;5912;51.034;6.984;2023-04-03T04:17:33;2.87;;;1.57;;
11711;SDS011;5912;51.034;6.984;2023-04-03T04:20:00;2.93;;;1.70;;
11711;SDS011;5912;51.034;6.984;2023-04-03T04:22:40;2.77;;;1.70;;
11711;SDS011;5912;51.034;6.984;2023-04-03T04:25:06;6.50;;;1.50;;
11711;SDS011;5912;51.034;6.984;2023-04-03T04:27:31;2.87;;;1.53;;
11711;SDS011;5912;51.034;6.984;2023-04-03T04:29:57;3.50;;;1.47;;
11711;SDS011;5912;51.034;6.984;2023-04-03T04:32:22;2.53;;;1.43;;
11711;SDS011;5912;51.034;6.984;2023-04-03T04:34:47;2.43;;;1.40;;
11711;SDS011;5912;51.034;6.984;2023-04-03T04:37:12;2.77;;;1.63;;
11711;SDS011;5912;51.034;6.984;2023-04-03T04:39:38;1.90;;;1.30;;
11711;SDS011;5912;51.034;6.984;2023-04-03T04:42:03;2.80;;;1.40;;
11711;SDS011;5912;51.034;6.984;2023-04-03T04:44:28;2.40;;;1.30;;
11711;SDS011;5912;51.034;6.984;2023-04-03T04:46:54;2.27;;;1.50;;
11711;SDS011;5912;51.034;6.984;2023-04-03T04:49:19;2.17;;;1.77;;
11711;SDS011;5912;51.034;6.984;2023-04-03T04:51:45;2.20;;;1.60;;
11711;SDS011;5912;51.034;6.984;2023-04-03T04:54:10;2.27;;;1.30;;
11711;SDS011;5912;51.034;6.984;2023-04-03T04:56:35;2.70;;;1.30;;
11711;SDS011;5912;51.034;6.984;2023-04-03T04:59:01;3.80;;;1.60;;
11711;SDS011;5912;51.034;6.984;2023-04-03T05:01:26;2.97;;;1.63;;
11711;SDS011;5912;51.034;6.984;2023-04-03T05:03:51;2.00;;;1.37;;
11711;SDS011;5912;51.034;6.984;2023-04-03T05:06:17;3.63;;;1.57;;
11711;SDS011;5912;51.034;6.984;2023-04-03T05:08:42;1.57;;;1.20;;
11711;SDS011;5912;51.034;6.984;2023-04-03T05:11:07;3.63;;;1.40;;
11711;SDS011;5912;51.034;6.984;2023-04-03T05:13:33;2.50;;;1.33;;
11711;SDS011;5912;51.034;6.984;2023-04-03T05:15:58;3.67;;;1.47;;
11711;SDS011;5912;51.034;6.984;2023-04-03T05:18:24;5.20;;;1.50;;
11711;SDS011;5912;51.034;6.984;2023-04-03T05:20:49;2.83;;;1.23;;
11711;SDS011;5912;51.034;6.984;2023-04-03T05:23:15;3.10;;;1.40;;
11711;SDS011;5912;51.034;6.984;2023-04-03T05:25:41;2.37;;;1.63;;
11711;SDS011;5912;51.034;6.984;2023-04-03T05:28:06;3.63;;;1.50;;
11711;SDS011;5912;51.034;6.984;2023-04-03T05:30:31;2.73;;;1.30;;
11711;SDS011;5912;51.034;6.984;2023-04-03T05:33:00;2.47;;;1.47;;
11711;SDS011;5912;51.034;6.984;2023-04-03T05:35:25;2.07;;;1.63;;
11711;SDS011;5912;51.034;6.984;2023-04-03T05:37:51;3.70;;;1.50;;
11711;SDS011;5912;51.034;6.984;2023-04-03T05:40:16;2.57;;;1.40;;
11711;SDS011;5912;51.034;6.984;2023-04-03T05:42:43;2.63;;;1.70;;
11711;SDS011;5912;51.034;6.984;2023-04-03T05:45:09;2.03;;;1.30;;
11711;SDS011;5912;51.034;6.984;2023-04-03T05:47:34;2.43;;;1.30;;
11711;SDS011;5912;51.034;6.984;2023-04-03T05:50:00;3.43;;;1.40;;
11711;SDS011;5912;51.034;6.984;2023-04-03T05:54:55;1.80;;;1.27;;
11711;SDS011;5912;51.034;6.984;2023-04-03T05:57:21;2.97;;;1.30;;
11711;SDS011;5912;51.034;6.984;2023-04-03T05:59:46;1.73;;;1.40;;
11711;SDS011;5912;51.034;6.984;2023-04-03T06:02:13;2.80;;;1.50;;
11711;SDS011;5912;51.034;6.984;2023-04-03T06:04:40;1.60;;;1.20;;
11711;SDS011;5912;51.034;6.984;2023-04-03T06:07:05;2.40;;;1.30;;
11711;SDS011;5912;51.034;6.984;2023-04-03T06:09:32;4.87;;;1.90;;
11711;SDS011;5912;51.034;6.984;2023-04-03T06:11:58;2.00;;;1.20;;
11711;SDS011;5912;51.034;6.984;2023-04-03T06:14:25;2.27;;;1.40;;
11711;SDS011;5912;51.034;6.984;2023-04-03T06:16:50;6.03;;;1.63;;
11711;SDS011;5912;51.034;6.984;2023-04-03T06:19:17;4.57;;;1.73;;
11711;SDS011;5912;51.034;6.984;2023-04-03T06:21:42;2.37;;;1.80;;
11711;SDS011;5912;51.034;6.984;2023-04-03T06:24:07;2.40;;;1.47;;
11711;SDS011;5912;51.034;6.984;2023-04-03T06:26:33;2.30;;;1.47;;
11711;SDS011;5912;51.034;6.984;2023-04-03T06:29:11;2.87;;;1.40;;
11711;SDS011;5912;51.034;6.984;2023-04-03T06:31:36;4.40;;;1.60;;
11711;SDS011;5912;51.034;6.984;2023-04-03T06:34:02;1.80;;;1.20;;
11711;SDS011;5912;51.034;6.984;2023-04-03T06:36:28;2.47;;;1.27;;
11711;SDS011;5912;51.034;6.984;2023-04-03T06:38:53;2.07;;;1.40;;
11711;SDS011;5912;51.034;6.984;2023-04-03T06:41:19;2.30;;;1.37;;
11711;SDS011;5912;51.034;6.984;2023-04-03T06:43:50;2.30;;;1.30;;
11711;SDS011;5912;51.034;6.984;2023-04-03T06:46:16;2.43;;;1.60;;
11711;SDS011;5912;51.034;6.984;2023-04-03T06:48:43;2.07;;;1.40;;
11711;SDS011;5912;51.034;6.984;2023-04-03T06:51:17;2.90;;;1.30;;
11711;SDS011;5912;51.034;6.984;2023-04-03T06:53:44;2.77;;;1.30;;
11711;SDS011;5912;51.034;6.984;2023-04-03T06:56:10;3.37;;;1.10;;
11711;SDS011;5912;51.034;6.984;2023-04-03T06:58:36;2.00;;;1.17;;
11711;SDS011;5912;51.034;6.984;2023-04-03T07:01:02;2.83;;;1.33;;
11711;SDS011;5912;51.034;6.984;2023-04-03T07:03:27;3.57;;;1.30;;
11711;SDS011;5912;51.034;6.984;2023-04-03T07:05:53;2.33;;;1.13;;
11711;SDS011;5912;51.034;6.984;2023-04-03T07:08:18;2.73;;;1.40;;
11711;SDS011;5912;51.034;6.984;2023-04-03T07:10:43;2.20;;;1.00;;
11711;SDS011;5912;51.034;6.984;2023-04-03T07:13:09;2.00;;;1.10;;
11711;SDS011;5912;51.034;6.984;2023-04-03T07:15:37;2.27;;;0.90;;
11711;SDS011;5912;51.034;6.984;2023-04-03T07:18:02;0.77;;;0.60;;
11711;SDS011;5912;51.034;6.984;2023-04-03T07:20:29;2.38;;;0.82;;
11711;SDS011;5912;51.034;6.984;2023-04-03T07:22:54;2.00;;;0.90;;
11711;SDS011;5912;51.034;6.984;2023-04-03T07:25:20;1.98;;;1.00;;
11711;SDS011;5912;51.034;6.984;2023-04-03T07:27:45;1.90;;;0.80;;
11711;SDS011;5912;51.034;6.984;2023-04-03T07:30:10;1.55;;;1.10;;
11711;SDS011;5912;51.034;6.984;2023-04-03T07:32:36;1.90;;;1.00;;
11711;SDS011;5912;51.034;6.984;2023-04-03T07:35:02;2.30;;;1.25;;
11711;SDS011;5912;51.034;6.984;2023-04-03T07:37:28;1.48;;;1.10;;
11711;SDS011;5912;51.034;6.984;2023-04-03T07:39:53;2.25;;;0.93;;
11711;SDS011;5912;51.034;6.984;2023-04-03T07:42:20;2.50;;;1.15;;
11711;SDS011;5912;51.034;6.984;2023-04-03T07:44:45;3.47;;;0.95;;
11711;SDS011;5912;51.034;6.984;2023-04-03T07:47:10;1.65;;;0.90;;
11711;SDS011;5912;51.034;6.984;2023-04-03T07:49:36;2.95;;;1.08;;
11711;SDS011;5912;51.034;6.984;2023-04-03T07:52:04;3.00;;;0.93;;
11711;SDS011;5912;51.034;6.984;2023-04-03T07:54:30;1.95;;;0.90;;
11711;SDS011;5912;51.034;6.984;2023-04-03T07:56:55;1.75;;;0.80;;
11711;SDS011;5912;51.034;6.984;2023-04-03T07:59:22;2.20;;;0.82;;
11711;SDS011;5912;51.034;6.984;2023-04-03T08:01:47;2.58;;;0.90;;
11711;SDS011;5912;51.034;6.984;2023-04-03T08:04:12;2.30;;;1.00;;
11711;SDS011;5912;51.034;6.984;2023-04-03T08:06:37;2.58;;;0.90;;
11711;SDS011;5912;51.034;6.984;2023-04-03T08:09:04;2.78;;;0.85;;
11711;SDS011;5912;51.034;6.984;2023-04-03T08:11:29;1.60;;;0.90;;
11711;SDS011;5912;51.034;6.984;2023-04-03T08:13:55;2.17;;;0.70;;
11711;SDS011;5912;51.034;6.984;2023-04-03T08:16:22;3.03;;;1.10;;
11711;SDS011;5912;51.034;6.984;2023-04-03T08:18:52;1.92;;;0.70;;
11711;SDS011;5912;51.034;6.984;2023-04-03T08:21:18;2.75;;;1.15;;
11711;SDS011;5912;51.034;6.984;2023-04-03T08:23:44;2.75;;;0.95;;
11711;SDS011;5912;51.034;6.984;2023-04-03T08:26:10;1.40;;;1.00;;
11711;SDS011;5912;51.034;6.984;2023-04-03T08:28:39;1.83;;;0.90;;
11711;SDS011;5912;51.034;6.984;2023-04-03T08:31:05;1.88;;;0.98;;
11711;SDS011;5912;51.034;6.984;2023-04-03T08:33:32;3.47;;;1.17;;
11711;SDS011;5912;51.034;6.984;2023-04-03T08:35:58;2.60;;;0.98;;
11711;SDS011;5912;51.034;6.984;2023-04-03T08:38:24;3.10;;;0.90;;
11711;SDS011;5912;51.034;6.984;2023-04-03T08:46:30;1.55;;;0.90;;
11711;SDS011;5912;51.034;6.984;2023-04-03T08:49:38;1.27;;;0.70;;
11711;SDS011;5912;51.034;6.984;2023-04-03T08:52:12;2.67;;;1.00;;
11711;SDS011;5912;51.034;6.984;2023-04-03T08:54:48;5.13;;;0.80;;
11711;SDS011;5912;51.034;6.984;2023-04-03T08:57:16;1.65;;;0.65;;
11711;SDS011;5912;51.034;6.984;2023-04-03T08:59:45;2.17;;;1.02;;
11711;SDS011;5912;51.034;6.984;2023-04-03T09:02:24;1.40;;;0.70;;
11711;SDS011;5912;51.034;6.984;2023-04-03T09:04:54;2.30;;;0.90;;
11711;SDS011;5912;51.034;6.984;2023-04-03T09:07:22;1.15;;;0.73;;
11711;SDS011;5912;51.034;6.984;2023-04-03T09:10:08;1.08;;;0.75;;
11711;SDS011;5912;51.034;6.984;2023-04-03T09:12:38;4.78;;;1.13;;
11711;SDS011;5912;51.034;6.984;2023-04-03T09:15:24;0.77;;;0.65;;
11711;SDS011;5912;51.034;6.984;2023-04-03T09:18:04;1.13;;;0.68;;
11711;SDS011;5912;51.034;6.984;2023-04-03T09:20:49;1.23;;;0.60;;
11711;SDS011;5912;51.034;6.984;2023-04-03T09:23:30;1.38;;;0.73;;
11711;SDS011;5912;51.034;6.984;2023-04-03T09:26:01;1.85;;;0.80;;
11711;SDS011;5912;51.034;6.984;2023-04-03T09:28:31;1.33;;;0.70;;
11711;SDS011;5912;51.034;6.984;2023-04-03T09:31:00;1.13;;;0.70;;
11711;SDS011;5912;51.034;6.984;2023-04-03T09:33:26;1.60;;;0.90;;
11711;SDS011;5912;51.034;6.984;2023-04-03T09:35:54;1.30;;;0.73;;
11711;SDS011;5912;51.034;6.984;2023-04-03T09:38:20;1.25;;;0.70;;
11711;SDS011;5912;51.034;6.984;2023-04-03T09:40:48;1.42;;;0.80;;
11711;SDS011;5912;51.034;6.984;2023-04-03T09:43:26;3.53;;;0.80;;
11711;SDS011;5912;51.034;6.984;2023-04-03T09:46:16;2.65;;;1.15;;
11711;SDS011;5912;51.034;6.984;2023-04-03T09:48:52;2.85;;;0.88;;
11711;SDS011;5912;51.034;6.984;2023-04-03T09:51:21;1.45;;;0.60;;
11711;SDS011;5912;51.034;6.984;2023-04-03T09:53:52;1.52;;;0.90;;
11711;SDS011;5912;51.034;6.984;2023-04-03T09:58:43;3.35;;;0.90;;
11711;SDS011;5912;51.034;6.984;2023-04-03T10:01:20;4.60;;;1.95;;
11711;SDS011;5912;51.034;6.984;2023-04-03T10:04:11;8.88;;;2.90;;
11711;SDS011;5912;51.034;6.984;2023-04-03T10:06:44;3.53;;;1.83;;
11711;SDS011;5912;51.034;6.984;2023-04-03T10:09:16;2.92;;;1.67;;
11711;SDS011;5912;51.034;6.984;2023-04-03T10:12:15;2.40;;;0.77;;
11711;SDS011;5912;51.034;6.984;2023-04-03T10:14:54;2.35;;;0.90;;
11711;SDS011;5912;51.034;6.984;2023-04-03T10:20:06;0.80;;;0.80;;
11711;SDS011;5912;51.034;6.984;2023-04-03T10:22:37;0.88;;;0.75;;
11711;SDS011;5912;51.034;6.984;2023-04-03T10:25:14;1.38;;;0.85;;
11711;SDS011;5912;51.034;6.984;2023-04-03T10:27:55;2.70;;;0.80;;
11711;SDS011;5912;51.034;6.984;2023-04-03T10:30:29;1.35;;;0.80;;
11711;SDS011;5912;51.034;6.984;2023-04-03T10:33:04;2.13;;;0.88;;
11711;SDS011;5912;51.034;6.984;2023-04-03T10:36:02;3.00;;;0.82;;
11711;SDS011;5912;51.034;6.984;2023-04-03T10:41:47;1.30;;;0.85;;
11711;SDS011;5912;51.034;6.984;2023-04-03T10:47:28;2.25;;;0.60;;
11711;SDS011;5912;51.034;6.984;2023-04-03T10:52:48;1.92;;;0.70;;
11711;SDS011;5912;51.034;6.984;2023-04-03T10:55:35;0.77;;;0.55;;
11711;SDS011;5912;51.034;6.984;2023-04-03T10:58:06;2.30;;;1.35;;
11711;SDS011;5912;51.034;6.984;2023-04-03T11:00:43;1.67;;;0.60;;
11711;SDS011;5912;51.034;6.984;2023-04-03T11:03:13;1.95;;;0.70;;
11711;SDS011;5912;51.034;6.984;2023-04-03T11:05:47;2.85;;;1.00;;
11711;SDS011;5912;51.034;6.984;2023-04-03T11:09:01;2.20;;;0.70;;
11711;SDS011;5912;51.034;6.984;2023-04-03T11:11:24;1.65;;;0.90;;
11711;SDS011;5912;51.034;6.984;2023-04-03T11:16:28;2.80;;;0.80;;
11711;SDS011;5912;51.034;6.984;2023-04-03T11:27:43;1.63;;;0.93;;
11711;SDS011;5912;51.034;6.984;2023-04-03T11:30:17;2.63;;;0.75;;
11711;SDS011;5912;51.034;6.984;2023-04-03T11:33:05;1.85;;;1.20;;
11711;SDS011;5912;51.034;6.984;2023-04-03T11:35:37;2.97;;;1.90;;
11711;SDS011;5912;51.034;6.984;2023-04-03T11:38:10;0.95;;;0.60;;
11711;SDS011;5912;51.034;6.984;2023-04-03T11:40:44;1.30;;;0.70;;
11711;SDS011;5912;51.034;6.984;2023-04-03T11:43:22;1.25;;;0.82;;
11711;SDS011;5912;51.034;6.984;2023-04-03T11:51:40;2.08;;;0.70;;
11711;SDS011;5912;51.034;6.984;2023-04-03T11:53:52;2.83;;;1.40;;
11711;SDS011;5912;51.034;6.984;2023-04-03T11:59:32;2.15;;;1.33;;
11711;SDS011;5912;51.034;6.984;2023-04-03T12:01:51;0.98;;;0.77;;
11711;SDS011;5912;51.034;6.984;2023-04-03T12:04:22;1.77;;;1.20;;
11711;SDS011;5912;51.034;6.984;2023-04-03T12:06:52;2.22;;;0.90;;
11711;SDS011;5912;51.034;6.984;2023-04-03T12:15:16;2.05;;;0.70;;
11711;SDS011;5912;51.034;6.984;2023-04-03T12:17:45;0.88;;;0.57;;
11711;SDS011;5912;51.034;6.984;2023-04-03T12:23:28;1.50;;;0.63;;
11711;SDS011;5912;51.034;6.984;2023-04-03T12:25:59;0.93;;;0.55;;
11711;SDS011;5912;51.034;6.984;2023-04-03T12:28:46;1.30;;;0.70;;
11711;SDS011;5912;51.034;6.984;2023-04-03T12:31:14;0.50;;;0.40;;
11711;SDS011;5912;51.034;6.984;2023-04-03T12:34:45;1.17;;;0.52;;
11711;SDS011;5912;51.034;6.984;2023-04-03T12:42:32;0.88;;;0.60;;
11711;SDS011;5912;51.034;6.984;2023-04-03T12:47:48;2.47;;;0.80;;
11711;SDS011;5912;51.034;6.984;2023-04-03T12:50:19;1.48;;;0.60;;
11711;SDS011;5912;51.034;6.984;2023-04-03T12:52:47;0.60;;;0.52;;
11711;SDS011;5912;51.034;6.984;2023-04-03T12:55:18;0.93;;;0.55;;
11711;SDS011;5912;51.034;6.984;2023-04-03T12:57:45;1.45;;;0.68;;
11711;SDS011;5912;51.034;6.984;2023-04-03T13:00:25;0.88;;;0.68;;
11711;SDS011;5912;51.034;6.984;2023-04-03T13:02:54;1.52;;;0.82;;
11711;SDS011;5912;51.034;6.984;2023-04-03T13:05:21;0.85;;;0.60;;
11711;SDS011;5912;51.034;6.984;2023-04-03T13:07:53;1.98;;;0.80;;
11711;SDS011;5912;51.034;6.984;2023-04-03T13:10:30;2.67;;;0.73;;
11711;SDS011;5912;51.034;6.984;2023-04-03T13:12:58;1.02;;;0.50;;
11711;SDS011;5912;51.034;6.984;2023-04-03T13:15:40;1.80;;;0.73;;
11711;SDS011;5912;51.034;6.984;2023-04-03T13:18:24;1.77;;;0.52;;
11711;SDS011;5912;51.034;6.984;2023-04-03T13:21:06;1.60;;;0.77;;
11711;SDS011;5912;51.034;6.984;2023-04-03T13:23:38;1.45;;;0.75;;
11711;SDS011;5912;51.034;6.984;2023-04-03T13:26:07;1.30;;;0.60;;
11711;SDS011;5912;51.034;6.984;2023-04-03T13:28:33;1.73;;;1.08;;
11711;SDS011;5912;51.034;6.984;2023-04-03T13:33:29;2.78;;;0.73;;
11711;SDS011;5912;51.034;6.984;2023-04-03T13:36:00;2.05;;;0.70;;
11711;SDS011;5912;51.034;6.984;2023-04-03T13:38:29;1.02;;;0.80;;
11711;SDS011;5912;51.034;6.984;2023-04-03T13:41:02;0.80;;;0.60;;
11711;SDS011;5912;51.034;6.984;2023-04-03T13:43:32;1.17;;;0.70;;
11711;SDS011;5912;51.034;6.984;2023-04-03T13:48:36;1.25;;;0.77;;
11711;SDS011;5912;51.034;6.984;2023-04-03T13:53:41;1.25;;;0.60;;
11711;SDS011;5912;51.034;6.984;2023-04-03T13:58:55;2.00;;;0.80;;
11711;SDS011;5912;51.034;6.984;2023-04-03T14:01:33;1.20;;;0.77;;
11711;SDS011;5912;51.034;6.984;2023-04-03T14:04:14;1.75;;;0.88;;
11711;SDS011;5912;51.034;6.984;2023-04-03T14:06:42;1.08;;;0.60;;
11711;SDS011;5912;51.034;6.984;2023-04-03T14:09:08;1.10;;;0.82;;
11711;SDS011;5912;51.034;6.984;2023-04-03T14:11:34;1.42;;;0.90;;
11711;SDS011;5912;51.034;6.984;2023-04-03T14:14:01;1.30;;;0.55;;
11711;SDS011;5912;51.034;6.984;2023-04-03T14:16:31;3.13;;;0.88;;
11711;SDS011;5912;51.034;6.984;2023-04-03T14:19:03;2.17;;;0.80;;
11711;SDS011;5912;51.034;6.984;2023-04-03T14:21:28;1.95;;;0.90;;
11711;SDS011;5912;51.034;6.984;2023-04-03T14:23:54;1.77;;;0.93;;
11711;SDS011;5912;51.034;6.984;2023-04-03T14:26:20;1.77;;;0.70;;
11711;SDS011;5912;51.034;6.984;2023-04-03T14:28:49;1.05;;;0.77;;
11711;SDS011;5912;51.034;6.984;2023-04-03T14:31:17;1.05;;;0.80;;
11711;SDS011;5912;51.034;6.984;2023-04-03T14:33:43;4.03;;;1.08;;
11711;SDS011;5912;51.034;6.984;2023-04-03T14:36:13;2.25;;;0.68;;
11711;SDS011;5912;51.034;6.984;2023-04-03T14:38:46;1.35;;;0.70;;
11711;SDS011;5912;51.034;6.984;2023-04-03T14:41:13;2.10;;;0.90;;
11711;SDS011;5912;51.034;6.984;2023-04-03T14:43:40;1.08;;;0.93;;
11711;SDS011;5912;51.034;6.984;2023-04-03T14:46:10;1.45;;;1.00;;
11711;SDS011;5912;51.034;6.984;2023-04-03T14:48:38;0.73;;;0.70;;
11711;SDS011;5912;51.034;6.984;2023-04-03T14:51:04;2.35;;;0.70;;
11711;SDS011;5912;51.034;6.984;2023-04-03T14:53:29;1.75;;;0.90;;
11711;SDS011;5912;51.034;6.984;2023-04-03T14:55:57;2.70;;;0.95;;
11711;SDS011;5912;51.034;6.984;2023-04-03T14:58:23;2.28;;;0.80;;
11711;SDS011;5912;51.034;6.984;2023-04-03T15:00:48;2.30;;;0.75;;
11711;SDS011;5912;51.034;6.984;2023-04-03T15:03:15;2.63;;;0.90;;
11711;SDS011;5912;51.034;6.984;2023-04-03T15:05:42;1.67;;;0.80;;
11711;SDS011;5912;51.034;6.984;2023-04-03T15:08:22;1.65;;;0.75;;
11711;SDS011;5912;51.034;6.984;2023-04-03T15:10:50;0.68;;;0.68;;
11711;SDS011;5912;51.034;6.984;2023-04-03T15:13:18;1.13;;;0.70;;
11711;SDS011;5912;51.034;6.984;2023-04-03T15:15:44;3.97;;;1.00;;
11711;SDS011;5912;51.034;6.984;2023-04-03T15:18:14;2.28;;;1.00;;
11711;SDS011;5912;51.034;6.984;2023-04-03T15:20:43;3.72;;;0.77;;
11711;SDS011;5912;51.034;6.984;2023-04-03T15:23:10;1.90;;;0.90;;
11711;SDS011;5912;51.034;6.984;2023-04-03T15:25:37;1.90;;;0.80;;
11711;SDS011;5912;51.034;6.984;2023-04-03T15:28:03;1.55;;;0.63;;
11711;SDS011;5912;51.034;6.984;2023-04-03T15:30:28;3.65;;;0.85;;
11711;SDS011;5912;51.034;6.984;2023-04-03T15:32:53;1.38;;;1.00;;
11711;SDS011;5912;51.034;6.984;2023-04-03T15:35:19;2.45;;;0.93;;
11711;SDS011;5912;51.034;6.984;2023-04-03T15:37:45;1.63;;;0.80;;
11711;SDS011;5912;51.034;6.984;2023-04-03T15:40:11;2.50;;;0.80;;
11711;SDS011;5912;51.034;6.984;2023-04-03T15:42:38;1.05;;;0.77;;
11711;SDS011;5912;51.034;6.984;2023-04-03T15:45:04;2.78;;;0.90;;
11711;SDS011;5912;51.034;6.984;2023-04-03T15:47:30;2.75;;;0.80;;
11711;SDS011;5912;51.034;6.984;2023-04-03T15:49:55;1.27;;;0.60;;
11711;SDS011;5912;51.034;6.984;2023-04-03T15:52:21;2.95;;;0.77;;
11711;SDS011;5912;51.034;6.984;2023-04-03T15:54:46;1.55;;;0.77;;
11711;SDS011;5912;51.034;6.984;2023-04-03T15:57:11;1.58;;;0.93;;
11711;SDS011;5912;51.034;6.984;2023-04-03T15:59:37;1.35;;;0.90;;
11711;SDS011;5912;51.034;6.984;2023-04-03T16:02:03;2.35;;;0.90;;
11711;SDS011;5912;51.034;6.984;2023-04-03T16:04:31;1.50;;;0.80;;
11711;SDS011;5912;51.034;6.984;2023-04-03T16:07:00;1.70;;;0.90;;
11711;SDS011;5912;51.034;6.984;2023-04-03T16:09:26;2.78;;;1.08;;
11711;SDS011;5912;51.034;6.984;2023-04-03T16:11:51;1.92;;;1.20;;
11711;SDS011;5912;51.034;6.984;2023-04-03T16:14:17;0.95;;;0.63;;
11711;SDS011;5912;51.034;6.984;2023-04-03T16:16:42;1.85;;;0.82;;
11711;SDS011;5912;51.034;6.984;2023-04-03T16:19:07;1.60;;;0.80;;
11711;SDS011;5912;51.034;6.984;2023-04-03T16:21:34;1.15;;;0.60;;
11711;SDS011;5912;51.034;6.984;2023-04-03T16:23:59;1.13;;;0.65;;
11711;SDS011;5912;51.034;6.984;2023-04-03T16:26:26;1.48;;;0.77;;
11711;SDS011;5912;51.034;6.984;2023-04-03T16:28:51;1.73;;;0.77;;